createdAt,value
2022-09-01T00:00:02.886Z,14.57
2022-09-01T00:02:34.346Z,14.34
2022-09-01T00:05:20.149Z,14.67
2022-09-01T00:07:47.461Z,14.64
2022-09-01T00:10:14.694Z,14.56
2022-09-01T00:12:41.735Z,13.80
2022-09-01T00:15:10.642Z,14.32
2022-09-01T00:17:38.000Z,14.60
2022-09-01T00:20:06.158Z,14.61
2022-09-01T00:22:33.937Z,14.17
2022-09-01T00:25:02.212Z,14.52
2022-09-01T00:27:30.625Z,14.04
2022-09-01T00:29:59.320Z,14.42
2022-09-01T00:32:26.819Z,14.24
2022-09-01T00:34:53.933Z,14.39
2022-09-01T00:37:21.088Z,14.38
2022-09-01T00:39:48.154Z,14.27
2022-09-01T00:42:15.171Z,14.31
2022-09-01T00:44:42.219Z,14.22
2022-09-01T00:47:09.525Z,14.08
2022-09-01T00:49:43.564Z,14.16
2022-09-01T00:52:29.605Z,14.31
2022-09-01T00:55:00.234Z,14.28
2022-09-01T00:57:28.055Z,14.26
2022-09-01T01:00:04.874Z,13.19
2022-09-01T01:02:32.186Z,14.45
2022-09-01T01:05:00.726Z,13.63
2022-09-01T01:07:29.009Z,14.25
2022-09-01T01:09:56.683Z,14.07
2022-09-01T01:12:23.902Z,14.05
2022-09-01T01:14:51.454Z,14.13
2022-09-01T01:17:23.060Z,13.98
2022-09-01T01:20:31.593Z,13.93
2022-09-01T01:23:16.148Z,13.95
2022-09-01T01:25:46.709Z,13.83
2022-09-01T01:28:16.233Z,13.55
2022-09-01T01:30:51.277Z,13.86
2022-09-01T01:33:25.488Z,13.74
2022-09-01T01:35:53.941Z,13.70
2022-09-01T01:38:23.155Z,13.93
2022-09-01T01:40:54.024Z,13.46
2022-09-01T01:43:23.353Z,13.91
2022-09-01T01:45:54.225Z,13.59
2022-09-01T01:48:25.897Z,13.64
2022-09-01T01:50:55.136Z,13.29
2022-09-01T01:53:23.444Z,13.70
2022-09-01T01:55:51.834Z,13.72
2022-09-01T01:58:21.017Z,13.51
2022-09-01T02:01:02.279Z,13.46
2022-09-01T02:03:38.784Z,13.57
2022-09-01T02:06:09.943Z,13.45
2022-09-01T02:08:39.418Z,13.66
2022-09-01T02:11:07.894Z,13.66
2022-09-01T02:13:35.327Z,13.29
2022-09-01T02:16:09.458Z,13.62
2022-09-01T02:18:43.248Z,13.51
2022-09-01T02:21:17.641Z,13.06
2022-09-01T02:23:48.959Z,13.39
2022-09-01T02:26:19.239Z,13.55
2022-09-01T02:28:55.601Z,13.48
2022-09-01T02:31:28.327Z,13.49
2022-09-01T02:33:59.130Z,13.55
2022-09-01T02:36:27.028Z,13.36
2022-09-01T02:38:56.666Z,13.34
2022-09-01T02:41:29.458Z,13.10
2022-09-01T02:44:00.384Z,13.26
2022-09-01T02:46:29.799Z,13.52
2022-09-01T02:49:00.925Z,13.47
2022-09-01T02:51:28.614Z,13.24
2022-09-01T02:53:55.619Z,13.39
2022-09-01T02:56:27.651Z,12.70
2022-09-01T02:58:56.068Z,13.34
2022-09-01T03:01:30.267Z,13.26
2022-09-01T03:04:05.929Z,13.25
2022-09-01T03:06:34.728Z,13.23
2022-09-01T03:09:04.595Z,13.24
2022-09-01T03:11:34.950Z,13.22
2022-09-01T03:14:02.505Z,13.13
2022-09-01T03:16:33.408Z,13.24
2022-09-01T03:19:03.446Z,13.05
2022-09-01T03:21:32.241Z,13.24
2022-09-01T03:24:02.284Z,13.23
2022-09-01T03:26:31.156Z,13.19
2022-09-01T03:28:59.277Z,13.20
2022-09-01T03:31:31.195Z,12.85
2022-09-01T03:34:01.589Z,12.93
2022-09-01T03:36:33.883Z,13.14
2022-09-01T03:39:01.594Z,12.71
2022-09-01T03:41:31.337Z,12.92
2022-09-01T03:43:59.536Z,12.93
2022-09-01T03:46:36.296Z,13.18
2022-09-01T03:49:07.605Z,13.11
2022-09-01T03:51:39.236Z,13.30
2022-09-01T03:54:08.192Z,13.29
2022-09-01T03:56:35.789Z,13.26
2022-09-01T03:59:03.156Z,13.35
2022-09-01T04:01:38.146Z,13.38
2022-09-01T04:04:06.873Z,13.43
2022-09-01T04:06:37.090Z,12.83
2022-09-01T04:09:04.205Z,13.39
2022-09-01T04:11:33.627Z,13.17
2022-09-01T04:14:01.824Z,13.36
2022-09-01T04:16:51.955Z,13.48
2022-09-01T04:19:25.917Z,13.51
2022-09-01T04:21:57.680Z,13.54
2022-09-01T04:24:29.584Z,13.40
2022-09-01T04:27:01.991Z,13.52
2022-09-01T04:29:29.654Z,13.43
2022-09-01T04:32:04.133Z,13.34
2022-09-01T04:34:38.511Z,13.45
2022-09-01T04:37:15.160Z,13.34
2022-09-01T04:39:54.821Z,13.38
2022-09-01T04:42:27.434Z,13.22
2022-09-01T04:44:57.783Z,13.16
2022-09-01T04:47:35.318Z,12.91
2022-09-01T04:50:17.710Z,13.31
2022-09-01T04:53:07.021Z,12.90
2022-09-01T04:55:50.212Z,13.39
2022-09-01T04:58:20.865Z,13.01
2022-09-01T05:00:53.697Z,13.13
2022-09-01T05:03:23.704Z,13.38
2022-09-01T05:06:02.680Z,13.21
2022-09-01T05:08:35.532Z,13.27
2022-09-01T05:11:08.307Z,13.20
2022-09-01T05:13:39.970Z,13.38
2022-09-01T05:16:16.011Z,12.93
2022-09-01T05:18:49.155Z,13.31
2022-09-01T05:21:20.164Z,13.43
2022-09-01T05:23:52.067Z,13.51
2022-09-01T05:26:28.008Z,12.63
2022-09-01T05:28:58.910Z,12.78
2022-09-01T05:31:33.723Z,13.35
2022-09-01T05:34:02.399Z,12.82
2022-09-01T05:36:33.878Z,13.56
2022-09-01T05:39:02.952Z,13.50
2022-09-01T05:41:30.060Z,13.47
2022-09-01T05:44:00.852Z,13.38
2022-09-01T05:46:30.180Z,13.23
2022-09-01T05:48:58.766Z,13.32
2022-09-01T05:51:46.476Z,13.43
2022-09-01T05:54:25.706Z,13.38
2022-09-01T05:56:54.517Z,13.63
2022-09-01T05:59:26.719Z,13.64
2022-09-01T06:02:09.059Z,12.57
2022-09-01T06:04:42.377Z,13.75
2022-09-01T06:07:16.606Z,13.67
2022-09-01T06:09:51.000Z,13.97
2022-09-01T06:12:24.040Z,13.96
2022-09-01T06:14:54.514Z,14.07
2022-09-01T06:17:25.645Z,14.00
2022-09-01T06:19:58.667Z,14.13
2022-09-01T06:22:28.980Z,14.09
2022-09-01T06:25:02.377Z,14.01
2022-09-01T06:27:38.924Z,14.18
2022-09-01T06:30:15.152Z,14.20
2022-09-01T06:32:49.831Z,14.12
2022-09-01T06:35:18.168Z,14.01
2022-09-01T06:37:47.293Z,14.24
2022-09-01T06:40:29.840Z,14.14
2022-09-01T06:42:57.008Z,13.76
2022-09-01T06:45:24.841Z,13.65
2022-09-01T06:47:59.927Z,14.30
2022-09-01T06:53:37.283Z,14.15
2022-09-01T06:56:11.253Z,14.22
2022-09-01T06:58:47.638Z,13.74
2022-09-01T07:01:19.851Z,13.94
2022-09-01T07:03:53.403Z,14.05
2022-09-01T07:10:05.834Z,14.12
2022-09-01T07:13:04.842Z,13.81
2022-09-01T07:16:31.867Z,13.51
2022-09-01T07:18:25.345Z,13.71
2022-09-01T07:21:36.654Z,14.04
2022-09-01T07:23:46.686Z,14.03
2022-09-01T07:26:36.065Z,14.08
2022-09-01T07:29:07.501Z,14.16
2022-09-01T07:34:46.296Z,14.24
2022-09-01T07:38:47.065Z,14.20
2022-09-01T07:49:29.293Z,14.02
2022-09-01T07:51:44.227Z,13.97
2022-09-01T07:54:14.042Z,14.39
2022-09-01T07:56:41.974Z,14.27
2022-09-01T07:59:15.425Z,14.29
2022-09-01T08:02:15.656Z,13.77
2022-09-01T08:04:43.926Z,14.23
2022-09-01T08:07:15.396Z,14.40
2022-09-01T08:09:44.126Z,14.06
2022-09-01T08:12:13.472Z,14.16
2022-09-01T08:14:49.207Z,14.11
2022-09-01T08:17:18.065Z,14.40
2022-09-01T08:20:07.360Z,14.56
2022-09-01T08:22:57.493Z,14.01
2022-09-01T08:25:29.216Z,14.39
2022-09-01T08:28:00.445Z,14.31
2022-09-01T08:30:30.355Z,14.27
2022-09-01T08:33:00.121Z,14.54
2022-09-01T08:35:29.735Z,14.47
2022-09-01T08:37:59.375Z,14.02
2022-09-01T08:40:27.579Z,14.09
2022-09-01T08:43:26.019Z,14.38
2022-09-01T08:45:58.115Z,14.23
2022-09-01T08:49:23.587Z,14.44
2022-09-01T08:51:35.066Z,12.56
2022-09-01T08:54:11.924Z,14.43
2022-09-01T08:56:42.924Z,13.85
2022-09-01T08:59:28.394Z,14.01
2022-09-01T09:02:20.197Z,14.53
2022-09-01T09:05:20.601Z,13.96
2022-09-01T09:08:24.073Z,14.67
2022-09-01T09:11:49.478Z,14.70
2022-09-01T09:15:38.498Z,14.89
2022-09-01T09:19:06.119Z,13.93
2022-09-01T09:21:56.394Z,14.02
2022-09-01T09:24:52.753Z,12.86
2022-09-01T09:27:29.692Z,14.71
2022-09-01T09:30:07.391Z,14.70
2022-09-01T09:35:46.231Z,14.62
2022-09-01T09:38:33.754Z,14.78
2022-09-01T09:41:25.620Z,14.78
2022-09-01T09:44:25.398Z,14.84
2022-09-01T09:46:53.364Z,14.71
2022-09-01T09:49:36.537Z,14.46
2022-09-01T09:52:19.349Z,14.91
2022-09-01T09:55:24.900Z,14.87
2022-09-01T09:57:56.773Z,14.52
2022-09-01T10:00:31.075Z,14.93
2022-09-01T10:03:08.671Z,13.27
2022-09-01T10:05:51.845Z,13.32
2022-09-01T10:08:28.730Z,15.03
2022-09-01T10:10:58.422Z,15.13
2022-09-01T10:13:32.971Z,14.86
2022-09-01T10:16:05.495Z,14.81
2022-09-01T10:18:38.031Z,14.81
2022-09-01T10:21:44.804Z,14.77
2022-09-01T10:24:38.802Z,14.55
2022-09-01T10:27:15.523Z,13.83
2022-09-01T10:30:18.774Z,14.95
2022-09-01T10:32:55.349Z,15.22
2022-09-01T10:35:39.031Z,15.22
2022-09-01T10:38:15.261Z,15.27
2022-09-01T10:41:07.867Z,15.13
2022-09-01T10:43:41.608Z,15.00
2022-09-01T10:46:15.914Z,15.26
2022-09-01T10:48:48.372Z,15.11
2022-09-01T10:51:28.829Z,15.19
2022-09-01T10:54:06.007Z,15.18
2022-09-01T10:56:51.235Z,14.59
2022-09-01T10:59:33.760Z,15.13
2022-09-01T11:02:26.761Z,14.71
2022-09-01T11:04:55.355Z,14.50
2022-09-01T11:07:50.731Z,14.99
2022-09-01T11:10:35.818Z,15.06
2022-09-01T11:13:21.846Z,14.67
2022-09-01T11:15:50.012Z,15.28
2022-09-01T11:18:29.224Z,15.38
2022-09-01T11:21:21.393Z,14.54
2022-09-01T11:23:48.917Z,15.12
2022-09-01T11:26:49.348Z,15.51
2022-09-01T11:29:55.676Z,15.53
2022-09-01T11:32:31.702Z,15.01
2022-09-01T11:35:03.661Z,15.51
2022-09-01T11:37:33.708Z,15.24
2022-09-01T11:40:08.707Z,14.73
2022-09-01T11:42:45.893Z,15.55
2022-09-01T11:45:25.534Z,15.40
2022-09-01T11:47:56.633Z,15.53
2022-09-01T11:50:29.738Z,15.62
2022-09-01T11:53:04.660Z,14.88
2022-09-01T11:55:36.936Z,15.74
2022-09-01T11:58:05.618Z,15.81
2022-09-01T12:00:38.780Z,15.62
2022-09-01T12:03:29.117Z,15.94
2022-09-01T12:06:01.466Z,15.81
2022-09-01T12:08:42.795Z,15.40
2022-09-01T12:11:13.328Z,15.74
2022-09-01T12:13:41.930Z,15.71
2022-09-01T12:16:18.367Z,15.68
2022-09-01T12:18:47.584Z,15.93
2022-09-01T12:21:31.809Z,15.82
2022-09-01T12:24:22.195Z,16.01
2022-09-01T12:26:54.398Z,15.85
2022-09-01T12:29:23.360Z,16.22
2022-09-01T12:31:52.786Z,15.81
2022-09-01T12:34:44.445Z,16.42
2022-09-01T12:37:22.181Z,16.33
2022-09-01T12:39:57.980Z,16.30
2022-09-01T12:42:41.174Z,16.00
2022-09-01T12:45:11.070Z,16.17
2022-09-01T12:47:48.073Z,16.33
2022-09-01T12:50:16.384Z,16.37
2022-09-01T12:52:52.931Z,16.42
2022-09-01T12:58:11.063Z,15.84
2022-09-01T13:01:05.510Z,16.13
2022-09-01T13:03:34.604Z,16.14
2022-09-01T13:06:03.817Z,16.05
2022-09-01T13:08:33.377Z,16.01
2022-09-01T13:11:20.071Z,16.00
2022-09-01T13:13:49.745Z,16.06
2022-09-01T13:16:16.852Z,15.90
2022-09-01T13:21:34.750Z,16.03
2022-09-01T13:24:07.221Z,16.03
2022-09-01T13:26:36.238Z,15.80
2022-09-01T13:29:04.032Z,15.61
2022-09-01T13:31:32.025Z,15.46
2022-09-01T13:34:21.711Z,16.16
2022-09-01T13:36:51.487Z,16.40
2022-09-01T13:39:20.562Z,16.23
2022-09-01T13:41:48.977Z,16.30
2022-09-01T13:44:18.810Z,16.31
2022-09-01T13:47:28.599Z,15.98
2022-09-01T13:52:21.762Z,16.25
2022-09-01T13:54:50.842Z,16.10
2022-09-01T13:57:18.146Z,16.23
2022-09-01T13:59:45.754Z,14.96
2022-09-01T14:02:15.742Z,16.17
2022-09-01T14:04:44.124Z,15.76
2022-09-01T14:07:11.570Z,16.17
2022-09-01T14:09:39.001Z,16.18
2022-09-01T14:12:06.908Z,16.10
2022-09-01T14:17:22.608Z,15.89
2022-09-01T14:19:51.091Z,16.09
2022-09-01T14:22:18.827Z,16.19
2022-09-01T14:24:46.418Z,16.20
2022-09-01T14:27:13.866Z,15.90
2022-09-01T14:32:08.241Z,15.83
2022-09-01T14:34:35.806Z,16.05
2022-09-01T14:37:04.520Z,16.02
2022-09-01T14:39:35.489Z,15.83
2022-09-01T14:42:04.215Z,15.85
2022-09-01T14:44:35.044Z,15.84
2022-09-01T14:47:02.681Z,15.60
2022-09-01T14:49:36.048Z,15.38
2022-09-01T14:52:10.755Z,14.66
2022-09-01T14:54:39.986Z,14.90
2022-09-01T14:59:54.758Z,14.80
2022-09-01T15:02:22.393Z,14.24
2022-09-01T15:04:49.720Z,12.95
2022-09-01T15:07:17.836Z,12.56
2022-09-01T15:09:45.250Z,14.19
2022-09-01T15:12:12.403Z,13.91
2022-09-01T15:14:39.645Z,14.00
2022-09-01T15:17:07.524Z,13.96
2022-09-01T15:19:37.516Z,13.52
2022-09-01T15:22:07.334Z,13.02
2022-09-01T15:24:34.875Z,13.10
2022-09-01T15:27:02.143Z,13.75
2022-09-01T15:29:34.273Z,13.24
2022-09-01T15:32:02.358Z,13.68
2022-09-01T15:34:29.513Z,13.00
2022-09-01T15:36:56.881Z,13.49
2022-09-01T15:39:24.031Z,13.33
2022-09-01T15:41:51.545Z,13.54
2022-09-01T15:44:19.005Z,13.54
2022-09-01T15:46:47.439Z,13.23
2022-09-01T15:49:15.159Z,13.24
2022-09-01T15:51:43.950Z,13.51
2022-09-01T15:54:12.811Z,12.78
2022-09-01T15:56:40.525Z,13.36
2022-09-01T15:59:09.145Z,13.07
2022-09-01T16:01:40.288Z,13.53
2022-09-01T16:04:14.678Z,13.50
2022-09-01T16:06:45.558Z,13.43
2022-09-01T16:09:13.442Z,12.77
2022-09-01T16:11:41.638Z,13.04
2022-09-01T16:14:08.942Z,13.50
2022-09-01T16:16:42.163Z,13.46
2022-09-01T16:19:28.743Z,13.56
2022-09-01T16:22:12.140Z,13.51
2022-09-01T16:24:49.440Z,13.39
2022-09-01T16:27:22.876Z,13.54
2022-09-01T16:30:04.043Z,13.50
2022-09-01T16:32:33.577Z,13.44
2022-09-01T16:35:04.319Z,12.90
2022-09-01T16:37:38.920Z,13.33
2022-09-01T16:40:21.622Z,12.93
2022-09-01T16:43:05.260Z,13.40
2022-09-01T16:46:07.893Z,13.51
2022-09-01T16:48:56.394Z,13.37
2022-09-01T16:51:44.890Z,13.04
2022-09-01T16:54:38.038Z,12.48
2022-09-01T16:57:30.612Z,13.41
2022-09-01T17:00:03.435Z,12.91
2022-09-01T17:03:00.110Z,13.47
2022-09-01T17:05:33.874Z,13.42
2022-09-01T17:08:23.377Z,13.29
2022-09-01T17:11:11.755Z,13.47
2022-09-01T17:13:45.098Z,13.30
2022-09-01T17:16:29.673Z,13.45
2022-09-01T17:19:05.105Z,13.42
2022-09-01T17:21:46.284Z,12.80
2022-09-01T17:24:24.506Z,12.94
2022-09-01T17:26:54.104Z,12.93
2022-09-01T17:29:41.225Z,13.17
2022-09-01T17:32:10.117Z,13.38
2022-09-01T17:34:58.034Z,13.35
2022-09-01T17:37:38.754Z,12.70
2022-09-01T17:40:18.284Z,13.20
2022-09-01T17:43:00.225Z,13.30
2022-09-01T17:45:37.210Z,13.22
2022-09-01T17:48:49.430Z,13.18
2022-09-01T17:51:38.224Z,13.14
2022-09-01T17:54:25.203Z,13.17
2022-09-01T17:57:32.294Z,13.12
2022-09-01T18:00:27.819Z,13.02
2022-09-01T18:03:23.192Z,13.10
2022-09-01T18:06:20.341Z,13.10
2022-09-01T18:08:54.022Z,12.40
2022-09-01T18:11:52.018Z,12.47
2022-09-01T18:14:24.759Z,12.87
2022-09-01T18:17:03.096Z,12.93
2022-09-01T18:19:43.744Z,12.95
2022-09-01T18:22:16.735Z,12.88
2022-09-01T18:25:07.847Z,12.94
2022-09-01T18:27:35.690Z,12.84
2022-09-01T18:30:04.559Z,12.60
2022-09-01T18:32:43.799Z,12.68
2022-09-01T18:35:29.443Z,12.31
2022-09-01T18:38:28.098Z,12.82
2022-09-01T18:41:17.178Z,12.90
2022-09-01T18:43:55.582Z,12.74
2022-09-01T18:46:32.232Z,12.82
2022-09-01T18:49:11.790Z,12.81
2022-09-01T18:51:45.440Z,12.82
2022-09-01T18:54:20.792Z,12.83
2022-09-01T18:56:55.922Z,12.82
2022-09-01T18:59:24.363Z,12.72
2022-09-01T19:01:56.861Z,12.01
2022-09-01T19:04:41.367Z,12.83
2022-09-01T19:07:17.314Z,12.84
2022-09-01T19:09:55.837Z,12.76
2022-09-01T19:12:22.980Z,12.78
2022-09-01T19:15:10.111Z,12.57
2022-09-01T19:18:04.416Z,12.81
2022-09-01T19:20:43.506Z,12.69
2022-09-01T19:23:20.289Z,12.68
2022-09-01T19:25:50.329Z,12.66
2022-09-01T19:28:36.391Z,12.71
2022-09-01T19:31:13.560Z,12.67
2022-09-01T19:33:45.480Z,12.38
2022-09-01T19:36:20.370Z,12.37
2022-09-01T19:38:47.902Z,11.93
2022-09-01T19:41:37.679Z,12.56
2022-09-01T19:44:21.153Z,12.13
2022-09-01T19:46:52.896Z,12.09
2022-09-01T19:49:48.737Z,12.46
2022-09-01T19:52:33.236Z,12.37
2022-09-01T19:55:10.229Z,11.96
2022-09-01T19:58:06.310Z,12.01
2022-09-01T20:00:39.129Z,12.41
2022-09-01T20:03:16.018Z,12.34
2022-09-01T20:05:44.698Z,12.44
2022-09-01T20:08:25.772Z,12.26
2022-09-01T20:11:21.812Z,12.25
2022-09-01T20:14:15.533Z,12.25
2022-09-01T20:16:49.793Z,12.25
2022-09-01T20:19:16.858Z,12.23
2022-09-01T20:21:48.353Z,12.21
2022-09-01T20:24:30.322Z,11.81
2022-09-01T20:27:15.135Z,12.29
2022-09-01T20:30:00.943Z,12.38
2022-09-01T20:32:41.312Z,12.13
2022-09-01T20:35:18.879Z,12.32
2022-09-01T20:37:52.220Z,12.29
2022-09-01T20:40:32.718Z,12.20
2022-09-01T20:43:15.164Z,12.32
2022-09-01T20:45:42.982Z,12.28
2022-09-01T20:48:16.519Z,12.31
2022-09-01T20:50:43.638Z,10.83
2022-09-01T20:53:27.635Z,12.28
2022-09-01T20:56:21.838Z,12.33
2022-09-01T20:59:31.868Z,12.28
2022-09-01T21:02:25.533Z,11.74
2022-09-01T21:04:58.760Z,11.50
2022-09-01T21:07:35.029Z,12.11
2022-09-01T21:10:24.773Z,12.15
2022-09-01T21:12:59.949Z,11.07
2022-09-01T21:15:45.306Z,11.91
2022-09-01T21:18:27.248Z,12.00
2022-09-01T21:21:10.184Z,11.96
2022-09-01T21:23:37.248Z,11.45
2022-09-01T21:26:04.494Z,11.90
2022-09-01T21:28:31.732Z,11.92
2022-09-01T21:31:00.212Z,11.15
2022-09-01T21:33:30.951Z,10.69
2022-09-01T21:35:59.330Z,11.42
2022-09-01T21:38:27.327Z,11.46
2022-09-01T21:40:54.709Z,11.88
2022-09-01T21:43:25.455Z,11.85
2022-09-01T21:45:52.463Z,11.83
2022-09-01T21:48:19.814Z,11.64
2022-09-01T21:50:47.694Z,11.77
2022-09-01T21:53:15.341Z,11.82
2022-09-01T21:55:43.459Z,11.81
2022-09-01T21:58:10.688Z,11.77
2022-09-01T22:00:39.739Z,11.78
2022-09-01T22:03:08.859Z,11.74
2022-09-01T22:05:41.576Z,10.58
2022-09-01T22:08:12.420Z,11.59
2022-09-01T22:10:49.601Z,11.51
2022-09-01T22:13:17.697Z,11.55
2022-09-01T22:15:47.896Z,9.53
2022-09-01T22:18:15.781Z,11.42
2022-09-01T22:20:43.811Z,11.50
2022-09-01T22:23:12.610Z,11.65
2022-09-01T22:25:45.503Z,11.62
2022-09-01T22:28:13.992Z,11.64
2022-09-01T22:30:49.321Z,11.49
2022-09-01T22:33:17.231Z,11.45
2022-09-01T22:35:47.048Z,11.59
2022-09-01T22:38:14.790Z,11.33
2022-09-01T22:40:47.176Z,11.59
2022-09-01T22:43:17.897Z,11.38
2022-09-01T22:45:46.858Z,11.59
2022-09-01T22:48:15.180Z,11.47
2022-09-01T22:50:44.054Z,11.46
2022-09-01T22:53:11.925Z,11.07
2022-09-01T22:55:40.059Z,11.45
2022-09-01T22:58:10.813Z,11.37
2022-09-01T23:00:43.759Z,11.34
2022-09-01T23:03:10.825Z,11.20
2022-09-01T23:05:37.877Z,11.17
2022-09-01T23:08:04.976Z,11.26
2022-09-01T23:10:32.374Z,10.76
2022-09-01T23:12:59.533Z,10.84
2022-09-01T23:15:26.805Z,11.28
2022-09-01T23:17:53.920Z,11.08
2022-09-01T23:20:20.898Z,11.16
2022-09-01T23:22:48.215Z,11.30
2022-09-01T23:25:16.039Z,11.36
2022-09-01T23:27:43.382Z,11.23
2022-09-01T23:30:13.875Z,11.37
2022-09-01T23:32:41.114Z,11.08
2022-09-01T23:35:08.747Z,11.24
2022-09-01T23:37:35.690Z,11.07
2022-09-01T23:40:03.922Z,11.11
2022-09-01T23:42:31.183Z,11.28
2022-09-01T23:44:58.328Z,11.33
2022-09-01T23:47:25.620Z,11.23
2022-09-01T23:49:52.884Z,10.86
2022-09-01T23:52:20.277Z,10.90
2022-09-01T23:54:47.595Z,11.07
2022-09-01T23:57:14.789Z,11.38
2022-09-01T23:59:41.726Z,11.37
